sensor_id;sensor_type;location;lat;lon;timestamp;P1;durP1;ratioP1;P2;durP2;ratioP2
1378;SDS011;683;48.738;9.226;2022-11-20T00:00:53;6.67;;;6.00;;
1378;SDS011;683;48.738;9.226;2022-11-20T00:03:21;7.47;;;6.60;;
1378;SDS011;683;48.738;9.226;2022-11-20T00:05:49;10.40;;;6.33;;
1378;SDS011;683;48.738;9.226;2022-11-20T00:08:17;7.60;;;6.23;;
1378;SDS011;683;48.738;9.226;2022-11-20T00:10:45;7.27;;;6.63;;
1378;SDS011;683;48.738;9.226;2022-11-20T00:13:12;8.33;;;5.90;;
1378;SDS011;683;48.738;9.226;2022-11-20T00:15:41;6.63;;;5.93;;
1378;SDS011;683;48.738;9.226;2022-11-20T00:18:10;6.97;;;6.07;;
1378;SDS011;683;48.738;9.226;2022-11-20T00:20:38;7.30;;;5.27;;
1378;SDS011;683;48.738;9.226;2022-11-20T00:23:05;7.10;;;5.90;;
1378;SDS011;683;48.738;9.226;2022-11-20T00:25:33;9.23;;;6.23;;
1378;SDS011;683;48.738;9.226;2022-11-20T00:28:01;6.27;;;5.67;;
1378;SDS011;683;48.738;9.226;2022-11-20T00:30:29;7.50;;;6.80;;
1378;SDS011;683;48.738;9.226;2022-11-20T00:32:57;7.07;;;6.37;;
1378;SDS011;683;48.738;9.226;2022-11-20T00:35:26;6.63;;;5.93;;
1378;SDS011;683;48.738;9.226;2022-11-20T00:37:54;7.00;;;6.30;;
1378;SDS011;683;48.738;9.226;2022-11-20T00:40:22;6.63;;;5.50;;
1378;SDS011;683;48.738;9.226;2022-11-20T00:42:49;8.13;;;6.40;;
1378;SDS011;683;48.738;9.226;2022-11-20T00:45:17;5.23;;;4.73;;
1378;SDS011;683;48.738;9.226;2022-11-20T00:47:45;7.00;;;5.07;;
1378;SDS011;683;48.738;9.226;2022-11-20T00:50:13;5.40;;;4.87;;
1378;SDS011;683;48.738;9.226;2022-11-20T00:52:42;7.73;;;5.30;;
1378;SDS011;683;48.738;9.226;2022-11-20T00:55:10;5.80;;;5.30;;
1378;SDS011;683;48.738;9.226;2022-11-20T00:57:37;6.43;;;5.70;;
1378;SDS011;683;48.738;9.226;2022-11-20T01:00:06;5.00;;;4.50;;
1378;SDS011;683;48.738;9.226;2022-11-20T01:02:35;5.40;;;4.67;;
1378;SDS011;683;48.738;9.226;2022-11-20T01:05:03;5.60;;;5.10;;
1378;SDS011;683;48.738;9.226;2022-11-20T01:07:31;6.30;;;5.73;;
1378;SDS011;683;48.738;9.226;2022-11-20T01:10:01;6.00;;;5.40;;
1378;SDS011;683;48.738;9.226;2022-11-20T01:12:29;7.40;;;4.80;;
1378;SDS011;683;48.738;9.226;2022-11-20T01:14:56;4.87;;;4.27;;
1378;SDS011;683;48.738;9.226;2022-11-20T01:17:24;4.53;;;3.93;;
1378;SDS011;683;48.738;9.226;2022-11-20T01:19:52;5.70;;;4.40;;
1378;SDS011;683;48.738;9.226;2022-11-20T01:22:20;5.27;;;4.77;;
1378;SDS011;683;48.738;9.226;2022-11-20T01:24:48;5.20;;;4.70;;
1378;SDS011;683;48.738;9.226;2022-11-20T01:27:17;5.63;;;5.13;;
1378;SDS011;683;48.738;9.226;2022-11-20T01:29:45;5.17;;;4.60;;
1378;SDS011;683;48.738;9.226;2022-11-20T01:32:12;5.80;;;5.00;;
1378;SDS011;683;48.738;9.226;2022-11-20T01:34:40;5.17;;;4.73;;
1378;SDS011;683;48.738;9.226;2022-11-20T01:37:08;4.57;;;4.17;;
1378;SDS011;683;48.738;9.226;2022-11-20T01:39:36;8.70;;;4.50;;
1378;SDS011;683;48.738;9.226;2022-11-20T01:42:04;5.70;;;4.60;;
1378;SDS011;683;48.738;9.226;2022-11-20T01:44:51;6.13;;;4.80;;
1378;SDS011;683;48.738;9.226;2022-11-20T01:47:22;5.20;;;4.60;;
1378;SDS011;683;48.738;9.226;2022-11-20T01:49:54;4.63;;;4.23;;
1378;SDS011;683;48.738;9.226;2022-11-20T01:52:27;4.47;;;4.07;;
1378;SDS011;683;48.738;9.226;2022-11-20T01:55:01;4.00;;;3.40;;
1378;SDS011;683;48.738;9.226;2022-11-20T01:57:32;5.43;;;3.67;;
1378;SDS011;683;48.738;9.226;2022-11-20T02:00:03;5.90;;;5.07;;
1378;SDS011;683;48.738;9.226;2022-11-20T02:02:39;3.93;;;3.53;;
1378;SDS011;683;48.738;9.226;2022-11-20T02:05:14;4.77;;;4.37;;
1378;SDS011;683;48.738;9.226;2022-11-20T02:07:46;6.33;;;4.23;;
1378;SDS011;683;48.738;9.226;2022-11-20T02:10:15;4.17;;;3.77;;
1378;SDS011;683;48.738;9.226;2022-11-20T02:12:43;4.23;;;3.83;;
1378;SDS011;683;48.738;9.226;2022-11-20T02:15:30;4.30;;;3.90;;
1378;SDS011;683;48.738;9.226;2022-11-20T02:18:00;4.20;;;3.90;;
1378;SDS011;683;48.738;9.226;2022-11-20T02:20:28;6.10;;;5.13;;
1378;SDS011;683;48.738;9.226;2022-11-20T02:22:56;5.33;;;4.40;;
1378;SDS011;683;48.738;9.226;2022-11-20T02:25:28;6.10;;;4.90;;
1378;SDS011;683;48.738;9.226;2022-11-20T02:27:58;6.40;;;4.60;;
1378;SDS011;683;48.738;9.226;2022-11-20T02:30:26;5.07;;;3.90;;
1378;SDS011;683;48.738;9.226;2022-11-20T02:32:53;5.60;;;4.30;;
1378;SDS011;683;48.738;9.226;2022-11-20T02:38:08;5.53;;;5.03;;
1378;SDS011;683;48.738;9.226;2022-11-20T02:40:38;4.47;;;4.07;;
1378;SDS011;683;48.738;9.226;2022-11-20T02:43:06;5.23;;;4.73;;
1378;SDS011;683;48.738;9.226;2022-11-20T02:45:35;5.57;;;5.00;;
1378;SDS011;683;48.738;9.226;2022-11-20T02:48:03;5.77;;;5.20;;
1378;SDS011;683;48.738;9.226;2022-11-20T02:50:33;4.87;;;4.47;;
1378;SDS011;683;48.738;9.226;2022-11-20T02:53:03;4.70;;;4.30;;
1378;SDS011;683;48.738;9.226;2022-11-20T02:55:31;7.67;;;5.00;;
1378;SDS011;683;48.738;9.226;2022-11-20T02:58:00;6.00;;;5.40;;
1378;SDS011;683;48.738;9.226;2022-11-20T03:00:28;6.47;;;5.37;;
1378;SDS011;683;48.738;9.226;2022-11-20T03:02:56;11.93;;;5.43;;
1378;SDS011;683;48.738;9.226;2022-11-20T03:05:24;5.83;;;5.23;;
1378;SDS011;683;48.738;9.226;2022-11-20T03:07:52;5.50;;;5.00;;
1378;SDS011;683;48.738;9.226;2022-11-20T03:10:19;6.27;;;5.67;;
1378;SDS011;683;48.738;9.226;2022-11-20T03:12:47;6.43;;;5.73;;
1378;SDS011;683;48.738;9.226;2022-11-20T03:15:22;7.20;;;5.50;;
1378;SDS011;683;48.738;9.226;2022-11-20T03:17:52;6.53;;;5.63;;
1378;SDS011;683;48.738;9.226;2022-11-20T03:20:21;5.73;;;5.17;;
1378;SDS011;683;48.738;9.226;2022-11-20T03:22:49;4.80;;;4.40;;
1378;SDS011;683;48.738;9.226;2022-11-20T03:25:17;5.23;;;4.80;;
1378;SDS011;683;48.738;9.226;2022-11-20T03:27:44;9.43;;;4.97;;
1378;SDS011;683;48.738;9.226;2022-11-20T03:30:12;7.10;;;5.40;;
1378;SDS011;683;48.738;9.226;2022-11-20T03:32:42;7.13;;;5.93;;
1378;SDS011;683;48.738;9.226;2022-11-20T03:35:10;6.77;;;6.00;;
1378;SDS011;683;48.738;9.226;2022-11-20T03:37:38;5.87;;;5.37;;
1378;SDS011;683;48.738;9.226;2022-11-20T03:40:06;5.53;;;5.00;;
1378;SDS011;683;48.738;9.226;2022-11-20T03:42:34;7.40;;;5.00;;
1378;SDS011;683;48.738;9.226;2022-11-20T03:45:15;7.50;;;4.93;;
1378;SDS011;683;48.738;9.226;2022-11-20T03:47:45;5.33;;;4.70;;
1378;SDS011;683;48.738;9.226;2022-11-20T03:50:13;5.63;;;5.13;;
1378;SDS011;683;48.738;9.226;2022-11-20T03:52:41;7.10;;;5.00;;
1378;SDS011;683;48.738;9.226;2022-11-20T03:55:09;8.80;;;6.40;;
1378;SDS011;683;48.738;9.226;2022-11-20T03:57:37;6.20;;;5.60;;
1378;SDS011;683;48.738;9.226;2022-11-20T04:00:05;7.17;;;5.30;;
1378;SDS011;683;48.738;9.226;2022-11-20T04:02:34;6.33;;;5.60;;
1378;SDS011;683;48.738;9.226;2022-11-20T04:05:03;6.17;;;5.63;;
1378;SDS011;683;48.738;9.226;2022-11-20T04:07:33;9.27;;;5.57;;
1378;SDS011;683;48.738;9.226;2022-11-20T04:10:02;6.43;;;5.83;;
1378;SDS011;683;48.738;9.226;2022-11-20T04:12:31;5.00;;;4.50;;
1378;SDS011;683;48.738;9.226;2022-11-20T04:15:00;5.90;;;5.10;;
1378;SDS011;683;48.738;9.226;2022-11-20T04:17:27;6.47;;;5.87;;
1378;SDS011;683;48.738;9.226;2022-11-20T04:19:55;5.50;;;5.00;;
1378;SDS011;683;48.738;9.226;2022-11-20T04:22:25;7.60;;;6.13;;
1378;SDS011;683;48.738;9.226;2022-11-20T04:24:52;8.40;;;5.97;;
1378;SDS011;683;48.738;9.226;2022-11-20T04:27:20;6.50;;;5.83;;
1378;SDS011;683;48.738;9.226;2022-11-20T04:29:48;7.00;;;6.40;;
1378;SDS011;683;48.738;9.226;2022-11-20T04:32:16;5.40;;;4.90;;
1378;SDS011;683;48.738;9.226;2022-11-20T04:34:43;5.77;;;5.20;;
1378;SDS011;683;48.738;9.226;2022-11-20T04:37:11;5.20;;;4.70;;
1378;SDS011;683;48.738;9.226;2022-11-20T04:39:40;5.30;;;4.70;;
1378;SDS011;683;48.738;9.226;2022-11-20T04:42:08;5.43;;;5.00;;
1378;SDS011;683;48.738;9.226;2022-11-20T04:44:56;9.83;;;5.23;;
1378;SDS011;683;48.738;9.226;2022-11-20T04:47:25;5.80;;;5.23;;
1378;SDS011;683;48.738;9.226;2022-11-20T04:49:52;6.97;;;6.27;;
1378;SDS011;683;48.738;9.226;2022-11-20T04:52:20;5.07;;;4.57;;
1378;SDS011;683;48.738;9.226;2022-11-20T04:54:49;5.93;;;5.33;;
1378;SDS011;683;48.738;9.226;2022-11-20T04:57:19;6.00;;;5.50;;
1378;SDS011;683;48.738;9.226;2022-11-20T04:59:46;5.40;;;4.93;;
1378;SDS011;683;48.738;9.226;2022-11-20T05:02:14;6.47;;;5.37;;
1378;SDS011;683;48.738;9.226;2022-11-20T05:04:42;9.80;;;5.33;;
1378;SDS011;683;48.738;9.226;2022-11-20T05:07:10;5.93;;;5.33;;
1378;SDS011;683;48.738;9.226;2022-11-20T05:09:37;5.70;;;5.00;;
1378;SDS011;683;48.738;9.226;2022-11-20T05:12:08;5.00;;;4.50;;
1378;SDS011;683;48.738;9.226;2022-11-20T05:14:35;6.73;;;4.80;;
1378;SDS011;683;48.738;9.226;2022-11-20T05:17:03;4.97;;;4.03;;
1378;SDS011;683;48.738;9.226;2022-11-20T05:19:31;5.07;;;4.53;;
1378;SDS011;683;48.738;9.226;2022-11-20T05:21:59;5.30;;;4.77;;
1378;SDS011;683;48.738;9.226;2022-11-20T05:24:27;5.50;;;4.57;;
1378;SDS011;683;48.738;9.226;2022-11-20T05:26:54;3.90;;;3.60;;
1378;SDS011;683;48.738;9.226;2022-11-20T05:29:23;5.57;;;4.20;;
1378;SDS011;683;48.738;9.226;2022-11-20T05:31:51;4.97;;;4.47;;
1378;SDS011;683;48.738;9.226;2022-11-20T05:34:19;4.83;;;4.43;;
1378;SDS011;683;48.738;9.226;2022-11-20T05:36:47;4.00;;;3.63;;
1378;SDS011;683;48.738;9.226;2022-11-20T05:39:15;5.27;;;4.40;;
1378;SDS011;683;48.738;9.226;2022-11-20T05:41:42;6.90;;;4.23;;
1378;SDS011;683;48.738;9.226;2022-11-20T05:44:10;5.23;;;3.97;;
1378;SDS011;683;48.738;9.226;2022-11-20T05:46:40;3.97;;;3.67;;
1378;SDS011;683;48.738;9.226;2022-11-20T05:49:07;3.60;;;3.30;;
1378;SDS011;683;48.738;9.226;2022-11-20T05:51:35;5.13;;;3.47;;
1378;SDS011;683;48.738;9.226;2022-11-20T05:54:03;6.83;;;3.97;;
1378;SDS011;683;48.738;9.226;2022-11-20T05:56:31;4.03;;;3.70;;
1378;SDS011;683;48.738;9.226;2022-11-20T05:58:59;4.13;;;3.60;;
1378;SDS011;683;48.738;9.226;2022-11-20T06:01:27;3.40;;;3.10;;
1378;SDS011;683;48.738;9.226;2022-11-20T06:03:56;4.43;;;3.60;;
1378;SDS011;683;48.738;9.226;2022-11-20T06:06:24;5.20;;;3.80;;
1378;SDS011;683;48.738;9.226;2022-11-20T06:08:51;4.53;;;4.13;;
1378;SDS011;683;48.738;9.226;2022-11-20T06:11:19;4.73;;;3.80;;
1378;SDS011;683;48.738;9.226;2022-11-20T06:13:47;4.50;;;3.57;;
1378;SDS011;683;48.738;9.226;2022-11-20T06:16:16;4.00;;;3.60;;
1378;SDS011;683;48.738;9.226;2022-11-20T06:18:47;4.30;;;3.90;;
1378;SDS011;683;48.738;9.226;2022-11-20T06:21:17;6.43;;;4.53;;
1378;SDS011;683;48.738;9.226;2022-11-20T06:23:46;3.70;;;3.40;;
1378;SDS011;683;48.738;9.226;2022-11-20T06:26:15;7.90;;;4.90;;
1378;SDS011;683;48.738;9.226;2022-11-20T06:28:44;4.10;;;3.70;;
1378;SDS011;683;48.738;9.226;2022-11-20T06:31:13;4.43;;;4.03;;
1378;SDS011;683;48.738;9.226;2022-11-20T06:33:42;3.80;;;3.50;;
1378;SDS011;683;48.738;9.226;2022-11-20T06:36:11;4.47;;;3.80;;
1378;SDS011;683;48.738;9.226;2022-11-20T06:38:42;5.43;;;4.60;;
1378;SDS011;683;48.738;9.226;2022-11-20T06:41:11;4.37;;;3.97;;
1378;SDS011;683;48.738;9.226;2022-11-20T06:43:40;4.53;;;4.13;;
1378;SDS011;683;48.738;9.226;2022-11-20T06:46:08;5.00;;;3.83;;
1378;SDS011;683;48.738;9.226;2022-11-20T06:48:37;4.83;;;4.43;;
1378;SDS011;683;48.738;9.226;2022-11-20T06:51:06;4.83;;;4.30;;
1378;SDS011;683;48.738;9.226;2022-11-20T06:53:34;4.00;;;3.70;;
1378;SDS011;683;48.738;9.226;2022-11-20T06:56:04;4.17;;;3.77;;
1378;SDS011;683;48.738;9.226;2022-11-20T06:58:33;6.83;;;4.97;;
1378;SDS011;683;48.738;9.226;2022-11-20T07:01:02;4.60;;;4.20;;
1378;SDS011;683;48.738;9.226;2022-11-20T07:03:31;4.90;;;4.30;;
1378;SDS011;683;48.738;9.226;2022-11-20T07:06:00;3.90;;;3.60;;
1378;SDS011;683;48.738;9.226;2022-11-20T07:08:28;4.10;;;3.77;;
1378;SDS011;683;48.738;9.226;2022-11-20T07:10:57;4.63;;;3.60;;
1378;SDS011;683;48.738;9.226;2022-11-20T07:13:27;4.60;;;4.20;;
1378;SDS011;683;48.738;9.226;2022-11-20T07:15:59;5.10;;;4.10;;
1378;SDS011;683;48.738;9.226;2022-11-20T07:18:27;4.63;;;4.33;;
1378;SDS011;683;48.738;9.226;2022-11-20T07:20:55;4.83;;;4.33;;
1378;SDS011;683;48.738;9.226;2022-11-20T07:23:26;5.13;;;4.63;;
1378;SDS011;683;48.738;9.226;2022-11-20T07:25:54;4.88;;;4.47;;
1378;SDS011;683;48.738;9.226;2022-11-20T07:28:22;4.33;;;3.73;;
1378;SDS011;683;48.738;9.226;2022-11-20T07:30:51;4.07;;;3.67;;
1378;SDS011;683;48.738;9.226;2022-11-20T07:33:19;3.83;;;3.50;;
1378;SDS011;683;48.738;9.226;2022-11-20T07:35:47;3.93;;;3.53;;
1378;SDS011;683;48.738;9.226;2022-11-20T07:38:15;3.90;;;3.50;;
1378;SDS011;683;48.738;9.226;2022-11-20T07:40:43;4.40;;;4.00;;
1378;SDS011;683;48.738;9.226;2022-11-20T07:43:11;4.13;;;3.80;;
1378;SDS011;683;48.738;9.226;2022-11-20T07:45:39;3.90;;;3.60;;
1378;SDS011;683;48.738;9.226;2022-11-20T07:48:08;3.80;;;3.50;;
1378;SDS011;683;48.738;9.226;2022-11-20T07:50:36;3.53;;;3.23;;
1378;SDS011;683;48.738;9.226;2022-11-20T07:53:04;4.87;;;4.33;;
1378;SDS011;683;48.738;9.226;2022-11-20T07:55:32;5.60;;;4.27;;
1378;SDS011;683;48.738;9.226;2022-11-20T07:58:00;4.30;;;3.97;;
1378;SDS011;683;48.738;9.226;2022-11-20T08:00:27;3.70;;;3.40;;
1378;SDS011;683;48.738;9.226;2022-11-20T08:02:55;6.33;;;3.93;;
1378;SDS011;683;48.738;9.226;2022-11-20T08:05:24;3.70;;;3.40;;
1378;SDS011;683;48.738;9.226;2022-11-20T08:07:52;4.80;;;4.30;;
1378;SDS011;683;48.738;9.226;2022-11-20T08:10:20;3.43;;;3.17;;
1378;SDS011;683;48.738;9.226;2022-11-20T08:12:48;4.53;;;3.60;;
1378;SDS011;683;48.738;9.226;2022-11-20T08:15:35;4.13;;;3.70;;
1378;SDS011;683;48.738;9.226;2022-11-20T08:18:04;4.20;;;3.80;;
1378;SDS011;683;48.738;9.226;2022-11-20T08:20:35;5.27;;;3.77;;
1378;SDS011;683;48.738;9.226;2022-11-20T08:23:03;3.30;;;3.00;;
1378;SDS011;683;48.738;9.226;2022-11-20T08:25:32;3.67;;;3.33;;
1378;SDS011;683;48.738;9.226;2022-11-20T08:28:01;3.40;;;3.10;;
1378;SDS011;683;48.738;9.226;2022-11-20T08:30:30;4.50;;;3.20;;
1378;SDS011;683;48.738;9.226;2022-11-20T08:33:00;3.57;;;3.27;;
1378;SDS011;683;48.738;9.226;2022-11-20T08:35:29;3.87;;;3.30;;
1378;SDS011;683;48.738;9.226;2022-11-20T08:38:02;4.80;;;3.80;;
1378;SDS011;683;48.738;9.226;2022-11-20T08:40:31;4.07;;;3.20;;
1378;SDS011;683;48.738;9.226;2022-11-20T08:42:59;3.40;;;3.10;;
1378;SDS011;683;48.738;9.226;2022-11-20T08:45:27;3.67;;;3.33;;
1378;SDS011;683;48.738;9.226;2022-11-20T08:47:59;3.33;;;3.10;;
1378;SDS011;683;48.738;9.226;2022-11-20T08:50:27;3.03;;;2.73;;
1378;SDS011;683;48.738;9.226;2022-11-20T08:53:03;2.70;;;2.50;;
1378;SDS011;683;48.738;9.226;2022-11-20T08:55:30;3.60;;;3.30;;
1378;SDS011;683;48.738;9.226;2022-11-20T08:58:02;3.60;;;2.87;;
1378;SDS011;683;48.738;9.226;2022-11-20T09:00:32;3.07;;;2.77;;
1378;SDS011;683;48.738;9.226;2022-11-20T09:03:00;3.10;;;2.50;;
1378;SDS011;683;48.738;9.226;2022-11-20T09:05:28;2.70;;;2.50;;
1378;SDS011;683;48.738;9.226;2022-11-20T09:07:56;2.73;;;2.53;;
1378;SDS011;683;48.738;9.226;2022-11-20T09:10:26;3.00;;;2.70;;
1378;SDS011;683;48.738;9.226;2022-11-20T09:12:54;3.13;;;2.93;;
1378;SDS011;683;48.738;9.226;2022-11-20T09:15:22;4.43;;;3.13;;
1378;SDS011;683;48.738;9.226;2022-11-20T09:17:51;2.90;;;2.70;;
1378;SDS011;683;48.738;9.226;2022-11-20T09:20:19;2.90;;;2.70;;
1378;SDS011;683;48.738;9.226;2022-11-20T09:22:47;2.87;;;2.63;;
1378;SDS011;683;48.738;9.226;2022-11-20T09:25:15;2.37;;;2.17;;
1378;SDS011;683;48.738;9.226;2022-11-20T09:27:44;1.77;;;1.67;;
1378;SDS011;683;48.738;9.226;2022-11-20T09:30:12;2.33;;;2.00;;
1378;SDS011;683;48.738;9.226;2022-11-20T09:32:41;2.73;;;1.80;;
1378;SDS011;683;48.738;9.226;2022-11-20T09:35:09;5.70;;;1.80;;
1378;SDS011;683;48.738;9.226;2022-11-20T09:37:37;1.80;;;1.70;;
1378;SDS011;683;48.738;9.226;2022-11-20T09:40:06;1.43;;;1.43;;
1378;SDS011;683;48.738;9.226;2022-11-20T09:42:46;2.83;;;1.20;;
1378;SDS011;683;48.738;9.226;2022-11-20T09:45:21;1.10;;;1.07;;
1378;SDS011;683;48.738;9.226;2022-11-20T09:48:08;1.97;;;1.87;;
1378;SDS011;683;48.738;9.226;2022-11-20T09:50:48;2.20;;;1.50;;
1378;SDS011;683;48.738;9.226;2022-11-20T09:53:26;1.37;;;1.20;;
1378;SDS011;683;48.738;9.226;2022-11-20T09:56:02;1.53;;;1.00;;
1378;SDS011;683;48.738;9.226;2022-11-20T09:58:33;0.70;;;0.70;;
1378;SDS011;683;48.738;9.226;2022-11-20T10:01:08;1.13;;;1.07;;
1378;SDS011;683;48.738;9.226;2022-11-20T10:03:41;0.83;;;0.83;;
1378;SDS011;683;48.738;9.226;2022-11-20T10:06:17;0.90;;;0.90;;
1378;SDS011;683;48.738;9.226;2022-11-20T10:08:49;0.90;;;0.90;;
1378;SDS011;683;48.738;9.226;2022-11-20T10:11:28;0.80;;;0.80;;
1378;SDS011;683;48.738;9.226;2022-11-20T10:14:10;1.60;;;1.10;;
1378;SDS011;683;48.738;9.226;2022-11-20T10:16:47;1.77;;;0.83;;
1378;SDS011;683;48.738;9.226;2022-11-20T10:19:27;1.40;;;1.30;;
1378;SDS011;683;48.738;9.226;2022-11-20T10:22:09;1.43;;;1.33;;
1378;SDS011;683;48.738;9.226;2022-11-20T10:24:50;5.33;;;1.33;;
1378;SDS011;683;48.738;9.226;2022-11-20T10:27:36;0.83;;;0.83;;
1378;SDS011;683;48.738;9.226;2022-11-20T10:30:17;1.07;;;0.97;;
1378;SDS011;683;48.738;9.226;2022-11-20T10:32:48;1.70;;;0.97;;
1378;SDS011;683;48.738;9.226;2022-11-20T10:35:20;1.60;;;1.03;;
1378;SDS011;683;48.738;9.226;2022-11-20T10:37:54;1.10;;;1.00;;
1378;SDS011;683;48.738;9.226;2022-11-20T10:40:27;1.47;;;1.20;;
1378;SDS011;683;48.738;9.226;2022-11-20T10:42:59;1.40;;;1.13;;
1378;SDS011;683;48.738;9.226;2022-11-20T10:45:43;2.37;;;1.27;;
1378;SDS011;683;48.738;9.226;2022-11-20T10:48:16;1.20;;;1.17;;
1378;SDS011;683;48.738;9.226;2022-11-20T10:51:01;1.93;;;1.47;;
1378;SDS011;683;48.738;9.226;2022-11-20T10:53:48;1.40;;;1.30;;
1378;SDS011;683;48.738;9.226;2022-11-20T10:56:24;1.10;;;1.10;;
1378;SDS011;683;48.738;9.226;2022-11-20T10:59:12;1.60;;;1.43;;
1378;SDS011;683;48.738;9.226;2022-11-20T11:02:01;1.40;;;1.40;;
1378;SDS011;683;48.738;9.226;2022-11-20T11:04:45;1.20;;;1.10;;
1378;SDS011;683;48.738;9.226;2022-11-20T11:07:15;1.00;;;1.00;;
1378;SDS011;683;48.738;9.226;2022-11-20T11:09:49;1.33;;;1.10;;
1378;SDS011;683;48.738;9.226;2022-11-20T11:12:20;1.63;;;1.17;;
1378;SDS011;683;48.738;9.226;2022-11-20T11:14:50;1.83;;;1.73;;
1378;SDS011;683;48.738;9.226;2022-11-20T11:17:28;1.90;;;1.70;;
1378;SDS011;683;48.738;9.226;2022-11-20T11:20:00;1.53;;;1.43;;
1378;SDS011;683;48.738;9.226;2022-11-20T11:22:30;3.57;;;2.13;;
1378;SDS011;683;48.738;9.226;2022-11-20T11:25:00;3.07;;;2.70;;
1378;SDS011;683;48.738;9.226;2022-11-20T11:27:28;1.93;;;1.83;;
1378;SDS011;683;48.738;9.226;2022-11-20T11:30:10;1.70;;;1.60;;
1378;SDS011;683;48.738;9.226;2022-11-20T11:32:42;1.60;;;1.50;;
1378;SDS011;683;48.738;9.226;2022-11-20T11:35:21;1.97;;;1.87;;
1378;SDS011;683;48.738;9.226;2022-11-20T11:37:51;2.77;;;1.90;;
1378;SDS011;683;48.738;9.226;2022-11-20T11:40:21;2.30;;;2.20;;
1378;SDS011;683;48.738;9.226;2022-11-20T11:42:53;2.83;;;2.00;;
1378;SDS011;683;48.738;9.226;2022-11-20T11:45:23;5.43;;;1.97;;
1378;SDS011;683;48.738;9.226;2022-11-20T11:47:53;1.67;;;1.57;;
1378;SDS011;683;48.738;9.226;2022-11-20T11:50:25;2.03;;;1.83;;
1378;SDS011;683;48.738;9.226;2022-11-20T11:52:55;2.23;;;1.63;;
1378;SDS011;683;48.738;9.226;2022-11-20T11:55:30;1.37;;;1.27;;
1378;SDS011;683;48.738;9.226;2022-11-20T11:58:05;4.77;;;2.07;;
1378;SDS011;683;48.738;9.226;2022-11-20T12:00:54;3.23;;;2.10;;
1378;SDS011;683;48.738;9.226;2022-11-20T12:03:27;1.67;;;1.57;;
1378;SDS011;683;48.738;9.226;2022-11-20T12:06:02;3.87;;;2.83;;
1378;SDS011;683;48.738;9.226;2022-11-20T12:08:38;1.67;;;1.47;;
1378;SDS011;683;48.738;9.226;2022-11-20T12:11:15;2.87;;;1.70;;
1378;SDS011;683;48.738;9.226;2022-11-20T12:13:48;2.77;;;1.73;;
1378;SDS011;683;48.738;9.226;2022-11-20T12:16:20;3.57;;;2.13;;
1378;SDS011;683;48.738;9.226;2022-11-20T12:18:50;2.67;;;1.80;;
1378;SDS011;683;48.738;9.226;2022-11-20T12:21:20;1.90;;;1.80;;
1378;SDS011;683;48.738;9.226;2022-11-20T12:24:03;1.90;;;1.60;;
1378;SDS011;683;48.738;9.226;2022-11-20T12:26:41;4.20;;;1.97;;
1378;SDS011;683;48.738;9.226;2022-11-20T12:29:18;1.43;;;1.33;;
1378;SDS011;683;48.738;9.226;2022-11-20T12:32:04;1.20;;;1.10;;
1378;SDS011;683;48.738;9.226;2022-11-20T12:34:50;1.37;;;1.27;;
1378;SDS011;683;48.738;9.226;2022-11-20T12:37:29;1.07;;;0.97;;
1378;SDS011;683;48.738;9.226;2022-11-20T12:40:03;1.70;;;1.60;;
1378;SDS011;683;48.738;9.226;2022-11-20T12:42:45;3.60;;;1.00;;
1378;SDS011;683;48.738;9.226;2022-11-20T12:48:52;1.63;;;1.20;;
1378;SDS011;683;48.738;9.226;2022-11-20T12:51:47;1.70;;;1.37;;
1378;SDS011;683;48.738;9.226;2022-11-20T12:57:22;2.30;;;1.50;;
1378;SDS011;683;48.738;9.226;2022-11-20T13:00:07;1.40;;;1.30;;
1378;SDS011;683;48.738;9.226;2022-11-20T13:05:39;1.10;;;1.00;;
1378;SDS011;683;48.738;9.226;2022-11-20T13:08:15;0.93;;;0.93;;
1378;SDS011;683;48.738;9.226;2022-11-20T13:10:49;1.47;;;1.37;;
1378;SDS011;683;48.738;9.226;2022-11-20T13:13:25;1.00;;;0.90;;
1378;SDS011;683;48.738;9.226;2022-11-20T13:16:04;2.90;;;1.10;;
1378;SDS011;683;48.738;9.226;2022-11-20T13:18:36;4.97;;;1.10;;
1378;SDS011;683;48.738;9.226;2022-11-20T13:21:15;1.47;;;1.37;;
1378;SDS011;683;48.738;9.226;2022-11-20T13:23:46;1.13;;;0.87;;
1378;SDS011;683;48.738;9.226;2022-11-20T13:26:15;2.80;;;1.10;;
1378;SDS011;683;48.738;9.226;2022-11-20T13:28:46;1.00;;;0.93;;
1378;SDS011;683;48.738;9.226;2022-11-20T13:31:27;2.63;;;1.20;;
1378;SDS011;683;48.738;9.226;2022-11-20T13:33:57;1.60;;;1.50;;
1378;SDS011;683;48.738;9.226;2022-11-20T13:36:29;0.93;;;0.90;;
1378;SDS011;683;48.738;9.226;2022-11-20T13:38:59;2.30;;;1.20;;
1378;SDS011;683;48.738;9.226;2022-11-20T13:41:28;2.10;;;1.27;;
1378;SDS011;683;48.738;9.226;2022-11-20T13:44:04;1.20;;;1.10;;
1378;SDS011;683;48.738;9.226;2022-11-20T13:46:38;1.10;;;1.00;;
1378;SDS011;683;48.738;9.226;2022-11-20T13:49:09;0.90;;;0.90;;
1378;SDS011;683;48.738;9.226;2022-11-20T13:51:48;2.00;;;1.13;;
1378;SDS011;683;48.738;9.226;2022-11-20T13:57:44;2.07;;;1.93;;
1378;SDS011;683;48.738;9.226;2022-11-20T14:00:26;1.33;;;1.20;;
1378;SDS011;683;48.738;9.226;2022-11-20T14:03:02;1.97;;;1.17;;
1378;SDS011;683;48.738;9.226;2022-11-20T14:05:38;1.17;;;0.93;;
1378;SDS011;683;48.738;9.226;2022-11-20T14:08:17;2.77;;;1.37;;
1378;SDS011;683;48.738;9.226;2022-11-20T14:11:04;1.00;;;0.97;;
1378;SDS011;683;48.738;9.226;2022-11-20T14:13:35;1.40;;;1.13;;
1378;SDS011;683;48.738;9.226;2022-11-20T14:16:03;4.03;;;1.73;;
1378;SDS011;683;48.738;9.226;2022-11-20T14:18:31;0.90;;;0.90;;
1378;SDS011;683;48.738;9.226;2022-11-20T14:21:00;1.37;;;1.27;;
1378;SDS011;683;48.738;9.226;2022-11-20T14:23:29;3.10;;;1.47;;
1378;SDS011;683;48.738;9.226;2022-11-20T14:25:57;1.13;;;0.90;;
1378;SDS011;683;48.738;9.226;2022-11-20T14:28:25;1.87;;;1.00;;
1378;SDS011;683;48.738;9.226;2022-11-20T14:30:56;1.60;;;1.33;;
1378;SDS011;683;48.738;9.226;2022-11-20T14:33:25;2.30;;;0.93;;
1378;SDS011;683;48.738;9.226;2022-11-20T14:35:54;1.70;;;1.37;;
1378;SDS011;683;48.738;9.226;2022-11-20T14:38:25;1.90;;;1.30;;
1378;SDS011;683;48.738;9.226;2022-11-20T14:40:54;1.30;;;1.20;;
1378;SDS011;683;48.738;9.226;2022-11-20T14:43:33;1.73;;;1.63;;
1378;SDS011;683;48.738;9.226;2022-11-20T14:46:05;1.33;;;1.23;;
1378;SDS011;683;48.738;9.226;2022-11-20T14:48:37;2.40;;;1.30;;
1378;SDS011;683;48.738;9.226;2022-11-20T14:51:08;1.30;;;1.20;;
1378;SDS011;683;48.738;9.226;2022-11-20T14:53:37;1.40;;;1.30;;
1378;SDS011;683;48.738;9.226;2022-11-20T14:56:04;1.40;;;1.30;;
1378;SDS011;683;48.738;9.226;2022-11-20T14:58:33;1.37;;;1.10;;
1378;SDS011;683;48.738;9.226;2022-11-20T15:01:02;5.87;;;1.20;;
1378;SDS011;683;48.738;9.226;2022-11-20T15:03:33;2.23;;;1.13;;
1378;SDS011;683;48.738;9.226;2022-11-20T15:06:02;2.43;;;1.70;;
1378;SDS011;683;48.738;9.226;2022-11-20T15:08:30;3.47;;;1.80;;
1378;SDS011;683;48.738;9.226;2022-11-20T15:10:58;1.53;;;1.30;;
1378;SDS011;683;48.738;9.226;2022-11-20T15:13:29;2.77;;;2.10;;
1378;SDS011;683;48.738;9.226;2022-11-20T15:15:59;1.77;;;1.57;;
1378;SDS011;683;48.738;9.226;2022-11-20T15:18:30;4.27;;;1.67;;
1378;SDS011;683;48.738;9.226;2022-11-20T15:21:01;3.57;;;1.87;;
1378;SDS011;683;48.738;9.226;2022-11-20T15:23:30;3.87;;;1.60;;
1378;SDS011;683;48.738;9.226;2022-11-20T15:25:57;2.07;;;1.90;;
1378;SDS011;683;48.738;9.226;2022-11-20T15:28:27;2.70;;;1.97;;
1378;SDS011;683;48.738;9.226;2022-11-20T15:30:57;2.33;;;1.77;;
1378;SDS011;683;48.738;9.226;2022-11-20T15:33:25;3.27;;;2.07;;
1378;SDS011;683;48.738;9.226;2022-11-20T15:35:54;1.80;;;1.57;;
1378;SDS011;683;48.738;9.226;2022-11-20T15:38:22;1.70;;;1.60;;
1378;SDS011;683;48.738;9.226;2022-11-20T15:40:50;2.40;;;1.67;;
1378;SDS011;683;48.738;9.226;2022-11-20T15:43:18;1.23;;;1.23;;
1378;SDS011;683;48.738;9.226;2022-11-20T15:45:46;1.60;;;1.47;;
1378;SDS011;683;48.738;9.226;2022-11-20T15:48:17;1.77;;;1.67;;
1378;SDS011;683;48.738;9.226;2022-11-20T15:50:49;1.60;;;1.50;;
1378;SDS011;683;48.738;9.226;2022-11-20T15:53:22;2.13;;;1.90;;
1378;SDS011;683;48.738;9.226;2022-11-20T15:55:49;2.47;;;1.93;;
1378;SDS011;683;48.738;9.226;2022-11-20T15:58:17;2.37;;;1.97;;
1378;SDS011;683;48.738;9.226;2022-11-20T16:00:45;3.03;;;1.90;;
1378;SDS011;683;48.738;9.226;2022-11-20T16:03:13;2.10;;;1.90;;
1378;SDS011;683;48.738;9.226;2022-11-20T16:05:42;1.93;;;1.80;;
1378;SDS011;683;48.738;9.226;2022-11-20T16:08:10;2.60;;;2.00;;